sensor_id;sensor_type;location;lat;lon;timestamp;temperature;humidity
8965;DHT22;4517;49.020;12.066;2023-03-14T00:01:24;9.90;99.90
8965;DHT22;4517;49.020;12.066;2023-03-14T00:03:50;9.80;99.90
8965;DHT22;4517;49.020;12.066;2023-03-14T00:06:16;9.70;99.90
8965;DHT22;4517;49.020;12.066;2023-03-14T00:08:43;9.60;99.90
8965;DHT22;4517;49.020;12.066;2023-03-14T00:11:18;9.60;99.90
8965;DHT22;4517;49.020;12.066;2023-03-14T00:13:47;9.50;99.90
8965;DHT22;4517;49.020;12.066;2023-03-14T00:16:13;9.40;99.90
8965;DHT22;4517;49.020;12.066;2023-03-14T00:18:39;9.40;99.90
8965;DHT22;4517;49.020;12.066;2023-03-14T00:21:06;9.40;99.90
8965;DHT22;4517;49.020;12.066;2023-03-14T00:23:33;9.30;99.90
8965;DHT22;4517;49.020;12.066;2023-03-14T00:26:08;9.30;99.90
8965;DHT22;4517;49.020;12.066;2023-03-14T00:28:34;9.30;99.90
8965;DHT22;4517;49.020;12.066;2023-03-14T00:31:03;9.20;99.90
8965;DHT22;4517;49.020;12.066;2023-03-14T00:33:29;9.20;99.90
8965;DHT22;4517;49.020;12.066;2023-03-14T00:35:58;9.30;99.90
8965;DHT22;4517;49.020;12.066;2023-03-14T00:38:24;9.30;99.90
8965;DHT22;4517;49.020;12.066;2023-03-14T00:40:51;9.20;99.90
8965;DHT22;4517;49.020;12.066;2023-03-14T00:43:17;9.20;99.90
8965;DHT22;4517;49.020;12.066;2023-03-14T00:45:43;9.30;99.90
8965;DHT22;4517;49.020;12.066;2023-03-14T00:48:08;9.20;99.90
8965;DHT22;4517;49.020;12.066;2023-03-14T00:50:34;9.20;99.90
8965;DHT22;4517;49.020;12.066;2023-03-14T00:52:59;9.20;99.90
8965;DHT22;4517;49.020;12.066;2023-03-14T00:55:25;9.20;99.90
8965;DHT22;4517;49.020;12.066;2023-03-14T00:57:51;9.00;99.90
8965;DHT22;4517;49.020;12.066;2023-03-14T01:00:16;9.00;99.90
8965;DHT22;4517;49.020;12.066;2023-03-14T01:02:43;9.00;99.90
8965;DHT22;4517;49.020;12.066;2023-03-14T01:05:09;9.00;99.90
8965;DHT22;4517;49.020;12.066;2023-03-14T01:07:36;9.00;99.90
8965;DHT22;4517;49.020;12.066;2023-03-14T01:10:03;9.00;99.90
8965;DHT22;4517;49.020;12.066;2023-03-14T01:12:28;9.00;99.90
8965;DHT22;4517;49.020;12.066;2023-03-14T01:14:54;9.00;99.90
8965;DHT22;4517;49.020;12.066;2023-03-14T01:17:20;9.00;99.90
8965;DHT22;4517;49.020;12.066;2023-03-14T01:19:46;9.00;99.90
8965;DHT22;4517;49.020;12.066;2023-03-14T01:22:11;9.00;99.90
8965;DHT22;4517;49.020;12.066;2023-03-14T01:24:37;9.00;99.90
8965;DHT22;4517;49.020;12.066;2023-03-14T01:27:03;9.00;99.90
8965;DHT22;4517;49.020;12.066;2023-03-14T01:29:29;9.00;99.90
8965;DHT22;4517;49.020;12.066;2023-03-14T01:31:54;8.90;99.90
8965;DHT22;4517;49.020;12.066;2023-03-14T01:34:20;8.90;99.90
8965;DHT22;4517;49.020;12.066;2023-03-14T01:36:45;8.90;99.90
8965;DHT22;4517;49.020;12.066;2023-03-14T01:39:11;8.90;99.90
8965;DHT22;4517;49.020;12.066;2023-03-14T01:41:39;8.90;99.90
8965;DHT22;4517;49.020;12.066;2023-03-14T01:44:05;8.90;99.90
8965;DHT22;4517;49.020;12.066;2023-03-14T01:46:39;8.90;99.90
8965;DHT22;4517;49.020;12.066;2023-03-14T01:57:16;9.00;99.90
8965;DHT22;4517;49.020;12.066;2023-03-14T02:00:09;9.10;99.90
8965;DHT22;4517;49.020;12.066;2023-03-14T02:02:41;9.00;99.90
8965;DHT22;4517;49.020;12.066;2023-03-14T02:05:09;9.00;99.90
8965;DHT22;4517;49.020;12.066;2023-03-14T02:07:48;9.00;99.90
8965;DHT22;4517;49.020;12.066;2023-03-14T02:10:16;8.90;99.90
8965;DHT22;4517;49.020;12.066;2023-03-14T02:12:45;8.90;99.90
8965;DHT22;4517;49.020;12.066;2023-03-14T02:15:12;8.90;99.90
8965;DHT22;4517;49.020;12.066;2023-03-14T02:17:38;8.90;99.90
8965;DHT22;4517;49.020;12.066;2023-03-14T02:22:52;8.70;99.90
8965;DHT22;4517;49.020;12.066;2023-03-14T02:25:51;8.70;99.90
8965;DHT22;4517;49.020;12.066;2023-03-14T02:28:20;8.70;99.90
8965;DHT22;4517;49.020;12.066;2023-03-14T02:30:46;8.70;99.90
8965;DHT22;4517;49.020;12.066;2023-03-14T02:33:17;8.70;99.90
8965;DHT22;4517;49.020;12.066;2023-03-14T02:41:14;8.70;99.90
8965;DHT22;4517;49.020;12.066;2023-03-14T02:43:40;8.80;99.90
8965;DHT22;4517;49.020;12.066;2023-03-14T02:46:07;8.80;99.90
8965;DHT22;4517;49.020;12.066;2023-03-14T02:48:45;8.80;99.90
8965;DHT22;4517;49.020;12.066;2023-03-14T02:51:13;8.70;99.90
8965;DHT22;4517;49.020;12.066;2023-03-14T02:53:40;8.80;99.90
8965;DHT22;4517;49.020;12.066;2023-03-14T02:56:07;8.70;99.90
8965;DHT22;4517;49.020;12.066;2023-03-14T02:58:33;8.70;99.90
8965;DHT22;4517;49.020;12.066;2023-03-14T03:00:59;8.70;99.90
8965;DHT22;4517;49.020;12.066;2023-03-14T03:03:24;8.60;99.90
8965;DHT22;4517;49.020;12.066;2023-03-14T03:05:51;8.70;99.90
8965;DHT22;4517;49.020;12.066;2023-03-14T03:08:18;8.80;99.90
8965;DHT22;4517;49.020;12.066;2023-03-14T03:10:44;8.70;99.90
8965;DHT22;4517;49.020;12.066;2023-03-14T03:13:09;8.60;99.90
8965;DHT22;4517;49.020;12.066;2023-03-14T03:15:35;8.60;99.90
8965;DHT22;4517;49.020;12.066;2023-03-14T03:18:00;8.60;99.90
8965;DHT22;4517;49.020;12.066;2023-03-14T03:20:26;8.50;99.90
8965;DHT22;4517;49.020;12.066;2023-03-14T03:22:51;8.50;99.90
8965;DHT22;4517;49.020;12.066;2023-03-14T03:25:17;8.60;99.90
8965;DHT22;4517;49.020;12.066;2023-03-14T03:27:43;8.50;99.90
8965;DHT22;4517;49.020;12.066;2023-03-14T03:30:09;8.70;99.90
8965;DHT22;4517;49.020;12.066;2023-03-14T03:32:35;8.60;99.90
8965;DHT22;4517;49.020;12.066;2023-03-14T03:35:02;8.50;99.90
8965;DHT22;4517;49.020;12.066;2023-03-14T03:37:30;8.50;99.90
8965;DHT22;4517;49.020;12.066;2023-03-14T03:39:56;8.50;99.90
8965;DHT22;4517;49.020;12.066;2023-03-14T03:42:21;8.50;99.90
8965;DHT22;4517;49.020;12.066;2023-03-14T03:44:47;8.50;99.90
8965;DHT22;4517;49.020;12.066;2023-03-14T03:47:13;8.50;99.90
8965;DHT22;4517;49.020;12.066;2023-03-14T03:49:39;8.40;99.90
8965;DHT22;4517;49.020;12.066;2023-03-14T03:52:04;8.40;99.90
8965;DHT22;4517;49.020;12.066;2023-03-14T03:54:30;8.40;99.90
8965;DHT22;4517;49.020;12.066;2023-03-14T03:56:55;8.40;99.90
8965;DHT22;4517;49.020;12.066;2023-03-14T03:59:21;8.40;99.90
8965;DHT22;4517;49.020;12.066;2023-03-14T04:01:47;8.30;99.90
8965;DHT22;4517;49.020;12.066;2023-03-14T04:04:13;8.30;99.90
8965;DHT22;4517;49.020;12.066;2023-03-14T04:06:39;8.20;99.90
8965;DHT22;4517;49.020;12.066;2023-03-14T04:09:05;8.20;99.90
8965;DHT22;4517;49.020;12.066;2023-03-14T04:11:31;8.20;99.90
8965;DHT22;4517;49.020;12.066;2023-03-14T04:13:56;8.20;99.90
8965;DHT22;4517;49.020;12.066;2023-03-14T04:16:23;8.10;99.90
8965;DHT22;4517;49.020;12.066;2023-03-14T04:18:50;8.10;99.90
8965;DHT22;4517;49.020;12.066;2023-03-14T04:21:16;8.20;99.90
8965;DHT22;4517;49.020;12.066;2023-03-14T04:23:42;8.20;99.90
8965;DHT22;4517;49.020;12.066;2023-03-14T04:26:07;8.20;99.90
8965;DHT22;4517;49.020;12.066;2023-03-14T04:28:33;8.10;99.90
8965;DHT22;4517;49.020;12.066;2023-03-14T04:31:10;8.00;99.90
8965;DHT22;4517;49.020;12.066;2023-03-14T04:33:36;8.00;99.90
8965;DHT22;4517;49.020;12.066;2023-03-14T04:36:03;8.00;99.90
8965;DHT22;4517;49.020;12.066;2023-03-14T04:38:29;8.00;99.90
8965;DHT22;4517;49.020;12.066;2023-03-14T04:40:55;8.00;99.90
8965;DHT22;4517;49.020;12.066;2023-03-14T04:43:20;7.90;99.90
8965;DHT22;4517;49.020;12.066;2023-03-14T04:45:46;7.90;99.90
8965;DHT22;4517;49.020;12.066;2023-03-14T04:48:12;7.80;99.90
8965;DHT22;4517;49.020;12.066;2023-03-14T04:50:38;7.80;99.90
8965;DHT22;4517;49.020;12.066;2023-03-14T04:53:04;7.80;99.90
8965;DHT22;4517;49.020;12.066;2023-03-14T04:55:30;7.80;99.90
8965;DHT22;4517;49.020;12.066;2023-03-14T04:57:57;7.80;99.90
8965;DHT22;4517;49.020;12.066;2023-03-14T05:00:23;7.80;99.90
8965;DHT22;4517;49.020;12.066;2023-03-14T05:02:48;7.80;99.90
8965;DHT22;4517;49.020;12.066;2023-03-14T05:05:14;7.80;99.90
8965;DHT22;4517;49.020;12.066;2023-03-14T05:07:40;7.80;99.90
8965;DHT22;4517;49.020;12.066;2023-03-14T05:10:05;7.90;99.90
8965;DHT22;4517;49.020;12.066;2023-03-14T05:12:31;7.90;99.90
8965;DHT22;4517;49.020;12.066;2023-03-14T05:14:57;7.90;99.90
8965;DHT22;4517;49.020;12.066;2023-03-14T05:17:22;7.90;99.90
8965;DHT22;4517;49.020;12.066;2023-03-14T05:19:48;7.90;99.90
8965;DHT22;4517;49.020;12.066;2023-03-14T05:22:13;7.90;99.90
8965;DHT22;4517;49.020;12.066;2023-03-14T05:24:39;7.90;99.90
8965;DHT22;4517;49.020;12.066;2023-03-14T05:27:04;7.90;99.90
8965;DHT22;4517;49.020;12.066;2023-03-14T05:29:30;7.90;99.90
8965;DHT22;4517;49.020;12.066;2023-03-14T05:31:55;7.90;99.90
8965;DHT22;4517;49.020;12.066;2023-03-14T05:34:21;8.00;99.90
8965;DHT22;4517;49.020;12.066;2023-03-14T05:36:47;8.00;99.90
8965;DHT22;4517;49.020;12.066;2023-03-14T05:39:12;8.00;99.90
8965;DHT22;4517;49.020;12.066;2023-03-14T05:41:38;8.10;99.90
8965;DHT22;4517;49.020;12.066;2023-03-14T05:44:03;8.00;99.90
8965;DHT22;4517;49.020;12.066;2023-03-14T05:46:29;8.00;99.90
8965;DHT22;4517;49.020;12.066;2023-03-14T05:48:56;8.00;99.90
8965;DHT22;4517;49.020;12.066;2023-03-14T05:51:22;8.00;99.90
8965;DHT22;4517;49.020;12.066;2023-03-14T05:53:47;8.00;99.90
8965;DHT22;4517;49.020;12.066;2023-03-14T05:56:13;8.00;99.90
8965;DHT22;4517;49.020;12.066;2023-03-14T05:58:38;8.00;99.90
8965;DHT22;4517;49.020;12.066;2023-03-14T06:01:05;8.00;99.90
8965;DHT22;4517;49.020;12.066;2023-03-14T06:03:31;8.00;99.90
8965;DHT22;4517;49.020;12.066;2023-03-14T06:05:57;8.00;99.90
8965;DHT22;4517;49.020;12.066;2023-03-14T06:08:23;8.10;99.90
8965;DHT22;4517;49.020;12.066;2023-03-14T06:10:48;8.10;99.90
8965;DHT22;4517;49.020;12.066;2023-03-14T06:13:14;8.10;99.90
8965;DHT22;4517;49.020;12.066;2023-03-14T06:15:41;8.10;99.90
8965;DHT22;4517;49.020;12.066;2023-03-14T06:18:07;8.10;99.90
8965;DHT22;4517;49.020;12.066;2023-03-14T06:20:33;8.10;99.90
8965;DHT22;4517;49.020;12.066;2023-03-14T06:23:00;8.10;99.90
8965;DHT22;4517;49.020;12.066;2023-03-14T06:25:26;8.10;99.90
8965;DHT22;4517;49.020;12.066;2023-03-14T06:27:51;8.20;99.90
8965;DHT22;4517;49.020;12.066;2023-03-14T06:30:17;8.20;99.90
8965;DHT22;4517;49.020;12.066;2023-03-14T06:32:43;8.30;99.90
8965;DHT22;4517;49.020;12.066;2023-03-14T06:35:09;8.30;99.90
8965;DHT22;4517;49.020;12.066;2023-03-14T06:37:34;8.40;99.90
8965;DHT22;4517;49.020;12.066;2023-03-14T06:40:00;8.40;99.90
8965;DHT22;4517;49.020;12.066;2023-03-14T06:42:26;8.60;99.90
8965;DHT22;4517;49.020;12.066;2023-03-14T06:44:51;8.60;99.90
8965;DHT22;4517;49.020;12.066;2023-03-14T06:47:17;8.70;99.90
8965;DHT22;4517;49.020;12.066;2023-03-14T06:49:42;8.70;99.90
8965;DHT22;4517;49.020;12.066;2023-03-14T06:52:08;8.80;99.90
8965;DHT22;4517;49.020;12.066;2023-03-14T06:54:34;8.80;99.90
8965;DHT22;4517;49.020;12.066;2023-03-14T06:56:59;8.90;99.90
8965;DHT22;4517;49.020;12.066;2023-03-14T06:59:25;8.90;99.90
8965;DHT22;4517;49.020;12.066;2023-03-14T07:01:50;8.90;99.90
8965;DHT22;4517;49.020;12.066;2023-03-14T07:04:17;9.00;99.90
8965;DHT22;4517;49.020;12.066;2023-03-14T07:06:43;9.00;99.90
8965;DHT22;4517;49.020;12.066;2023-03-14T07:09:12;9.20;99.90
8965;DHT22;4517;49.020;12.066;2023-03-14T07:11:38;9.20;99.90
8965;DHT22;4517;49.020;12.066;2023-03-14T07:14:04;9.20;99.90
8965;DHT22;4517;49.020;12.066;2023-03-14T07:16:30;9.20;99.90
8965;DHT22;4517;49.020;12.066;2023-03-14T07:18:58;9.30;99.90
8965;DHT22;4517;49.020;12.066;2023-03-14T07:21:24;9.30;99.90
8965;DHT22;4517;49.020;12.066;2023-03-14T07:23:49;9.40;99.90
8965;DHT22;4517;49.020;12.066;2023-03-14T07:26:15;9.50;99.90
8965;DHT22;4517;49.020;12.066;2023-03-14T07:28:42;9.60;99.90
8965;DHT22;4517;49.020;12.066;2023-03-14T07:31:07;9.70;99.90
8965;DHT22;4517;49.020;12.066;2023-03-14T07:33:33;9.70;99.90
8965;DHT22;4517;49.020;12.066;2023-03-14T07:35:59;9.80;99.90
8965;DHT22;4517;49.020;12.066;2023-03-14T07:38:25;9.90;99.90
8965;DHT22;4517;49.020;12.066;2023-03-14T07:40:58;9.90;99.90
8965;DHT22;4517;49.020;12.066;2023-03-14T07:43:23;10.00;99.90
8965;DHT22;4517;49.020;12.066;2023-03-14T07:45:49;10.10;99.90
8965;DHT22;4517;49.020;12.066;2023-03-14T07:48:14;10.10;99.90
8965;DHT22;4517;49.020;12.066;2023-03-14T07:50:40;10.10;99.90
8965;DHT22;4517;49.020;12.066;2023-03-14T07:53:06;10.10;99.90
8965;DHT22;4517;49.020;12.066;2023-03-14T07:55:31;10.00;99.90
8965;DHT22;4517;49.020;12.066;2023-03-14T07:57:57;10.00;99.90
8965;DHT22;4517;49.020;12.066;2023-03-14T08:00:22;10.00;99.90
8965;DHT22;4517;49.020;12.066;2023-03-14T08:02:48;10.00;99.90
8965;DHT22;4517;49.020;12.066;2023-03-14T08:05:14;10.00;99.90
8965;DHT22;4517;49.020;12.066;2023-03-14T08:07:39;10.00;99.90
8965;DHT22;4517;49.020;12.066;2023-03-14T08:10:05;10.10;99.90
8965;DHT22;4517;49.020;12.066;2023-03-14T08:12:31;10.10;99.90
8965;DHT22;4517;49.020;12.066;2023-03-14T08:14:57;10.20;99.90
8965;DHT22;4517;49.020;12.066;2023-03-14T08:17:22;10.30;99.90
8965;DHT22;4517;49.020;12.066;2023-03-14T08:19:48;10.40;99.90
8965;DHT22;4517;49.020;12.066;2023-03-14T08:22:13;10.50;99.90
8965;DHT22;4517;49.020;12.066;2023-03-14T08:24:39;10.60;99.90
8965;DHT22;4517;49.020;12.066;2023-03-14T08:27:06;10.70;99.90
8965;DHT22;4517;49.020;12.066;2023-03-14T08:29:31;10.90;99.90
8965;DHT22;4517;49.020;12.066;2023-03-14T08:31:57;11.00;99.90
8965;DHT22;4517;49.020;12.066;2023-03-14T08:34:23;11.00;99.90
8965;DHT22;4517;49.020;12.066;2023-03-14T08:36:48;11.10;99.90
8965;DHT22;4517;49.020;12.066;2023-03-14T08:39:14;11.30;99.90
8965;DHT22;4517;49.020;12.066;2023-03-14T08:41:39;11.40;99.90
8965;DHT22;4517;49.020;12.066;2023-03-14T08:44:10;11.60;99.90
8965;DHT22;4517;49.020;12.066;2023-03-14T08:46:37;11.70;99.90
8965;DHT22;4517;49.020;12.066;2023-03-14T08:49:03;12.00;99.90
8965;DHT22;4517;49.020;12.066;2023-03-14T08:51:28;12.30;99.90
8965;DHT22;4517;49.020;12.066;2023-03-14T08:53:54;12.40;99.90
8965;DHT22;4517;49.020;12.066;2023-03-14T08:56:20;12.50;99.90
8965;DHT22;4517;49.020;12.066;2023-03-14T08:58:45;12.60;99.90
8965;DHT22;4517;49.020;12.066;2023-03-14T09:01:11;12.60;99.90
8965;DHT22;4517;49.020;12.066;2023-03-14T09:03:37;12.90;99.90
8965;DHT22;4517;49.020;12.066;2023-03-14T09:06:08;13.00;99.90
8965;DHT22;4517;49.020;12.066;2023-03-14T09:08:35;13.00;99.90
8965;DHT22;4517;49.020;12.066;2023-03-14T09:11:01;13.10;99.90
8965;DHT22;4517;49.020;12.066;2023-03-14T09:13:27;13.00;99.90
8965;DHT22;4517;49.020;12.066;2023-03-14T09:15:56;13.00;99.90
8965;DHT22;4517;49.020;12.066;2023-03-14T09:18:22;13.10;99.90
8965;DHT22;4517;49.020;12.066;2023-03-14T09:20:48;13.30;99.90
8965;DHT22;4517;49.020;12.066;2023-03-14T09:23:15;13.50;99.90
8965;DHT22;4517;49.020;12.066;2023-03-14T09:25:40;13.60;99.90
8965;DHT22;4517;49.020;12.066;2023-03-14T09:28:06;13.40;99.90
8965;DHT22;4517;49.020;12.066;2023-03-14T09:30:32;13.60;99.90
8965;DHT22;4517;49.020;12.066;2023-03-14T09:32:57;13.80;99.90
8965;DHT22;4517;49.020;12.066;2023-03-14T09:35:25;13.80;99.90
8965;DHT22;4517;49.020;12.066;2023-03-14T09:37:51;13.60;99.90
8965;DHT22;4517;49.020;12.066;2023-03-14T09:40:18;13.70;99.90
8965;DHT22;4517;49.020;12.066;2023-03-14T09:42:52;13.80;99.90
8965;DHT22;4517;49.020;12.066;2023-03-14T09:45:26;13.60;99.90
8965;DHT22;4517;49.020;12.066;2023-03-14T09:47:53;13.60;99.90
8965;DHT22;4517;49.020;12.066;2023-03-14T09:50:21;13.80;99.90
8965;DHT22;4517;49.020;12.066;2023-03-14T09:52:49;13.80;99.90
8965;DHT22;4517;49.020;12.066;2023-03-14T09:55:20;13.90;99.90
8965;DHT22;4517;49.020;12.066;2023-03-14T09:57:48;14.10;99.90
8965;DHT22;4517;49.020;12.066;2023-03-14T10:00:24;14.20;99.90
8965;DHT22;4517;49.020;12.066;2023-03-14T10:02:56;14.10;99.90
8965;DHT22;4517;49.020;12.066;2023-03-14T10:05:24;14.00;99.90
8965;DHT22;4517;49.020;12.066;2023-03-14T10:07:50;14.00;99.90
8965;DHT22;4517;49.020;12.066;2023-03-14T10:10:20;14.10;99.90
8965;DHT22;4517;49.020;12.066;2023-03-14T10:16:03;14.30;99.90
8965;DHT22;4517;49.020;12.066;2023-03-14T10:18:31;14.30;99.90
8965;DHT22;4517;49.020;12.066;2023-03-14T10:23:43;13.90;99.90
8965;DHT22;4517;49.020;12.066;2023-03-14T10:26:16;14.00;99.90
8965;DHT22;4517;49.020;12.066;2023-03-14T10:28:52;13.90;99.90
8965;DHT22;4517;49.020;12.066;2023-03-14T10:31:18;13.90;99.90
8965;DHT22;4517;49.020;12.066;2023-03-14T10:34:01;14.10;99.90
8965;DHT22;4517;49.020;12.066;2023-03-14T10:36:29;14.20;99.90
8965;DHT22;4517;49.020;12.066;2023-03-14T10:39:27;14.30;99.90
8965;DHT22;4517;49.020;12.066;2023-03-14T10:42:01;14.40;99.90
8965;DHT22;4517;49.020;12.066;2023-03-14T10:44:28;14.40;99.90
8965;DHT22;4517;49.020;12.066;2023-03-14T10:46:58;14.70;99.90
8965;DHT22;4517;49.020;12.066;2023-03-14T10:49:35;14.80;99.90
8965;DHT22;4517;49.020;12.066;2023-03-14T10:54:57;15.30;99.90
8965;DHT22;4517;49.020;12.066;2023-03-14T10:57:24;15.30;99.90
8965;DHT22;4517;49.020;12.066;2023-03-14T10:59:50;15.30;99.90
8965;DHT22;4517;49.020;12.066;2023-03-14T11:05:19;15.00;99.90
8965;DHT22;4517;49.020;12.066;2023-03-14T11:07:47;14.80;99.90
8965;DHT22;4517;49.020;12.066;2023-03-14T11:10:26;14.70;99.90
8965;DHT22;4517;49.020;12.066;2023-03-14T11:13:24;14.50;99.90
8965;DHT22;4517;49.020;12.066;2023-03-14T11:19:17;14.40;99.90
8965;DHT22;4517;49.020;12.066;2023-03-14T11:24:45;13.90;99.90
8965;DHT22;4517;49.020;12.066;2023-03-14T11:30:25;13.70;99.90
8965;DHT22;4517;49.020;12.066;2023-03-14T11:33:05;13.70;99.90
8965;DHT22;4517;49.020;12.066;2023-03-14T11:35:42;13.80;99.90
8965;DHT22;4517;49.020;12.066;2023-03-14T11:38:30;14.10;99.90
8965;DHT22;4517;49.020;12.066;2023-03-14T11:40:59;14.50;99.90
8965;DHT22;4517;49.020;12.066;2023-03-14T11:43:34;14.60;99.90
8965;DHT22;4517;49.020;12.066;2023-03-14T11:48:50;15.00;99.90
8965;DHT22;4517;49.020;12.066;2023-03-14T11:51:28;15.00;99.90
8965;DHT22;4517;49.020;12.066;2023-03-14T11:59:17;15.20;99.90
8965;DHT22;4517;49.020;12.066;2023-03-14T12:01:52;15.30;99.90
8965;DHT22;4517;49.020;12.066;2023-03-14T12:04:26;15.60;99.90
8965;DHT22;4517;49.020;12.066;2023-03-14T12:06:56;16.10;99.90
8965;DHT22;4517;49.020;12.066;2023-03-14T12:09:27;16.60;99.90
8965;DHT22;4517;49.020;12.066;2023-03-14T12:11:56;16.70;99.90
8965;DHT22;4517;49.020;12.066;2023-03-14T12:14:33;16.50;99.90
8965;DHT22;4517;49.020;12.066;2023-03-14T12:17:05;16.50;99.90
8965;DHT22;4517;49.020;12.066;2023-03-14T12:19:37;16.50;99.90
8965;DHT22;4517;49.020;12.066;2023-03-14T12:22:29;16.10;99.90
8965;DHT22;4517;49.020;12.066;2023-03-14T12:24:59;15.60;99.90
8965;DHT22;4517;49.020;12.066;2023-03-14T12:28:20;15.30;99.90
8965;DHT22;4517;49.020;12.066;2023-03-14T12:30:46;15.00;99.90
8965;DHT22;4517;49.020;12.066;2023-03-14T12:35:47;14.50;99.90
8965;DHT22;4517;49.020;12.066;2023-03-14T12:38:32;14.40;99.90
8965;DHT22;4517;49.020;12.066;2023-03-14T12:41:15;14.30;99.90
8965;DHT22;4517;49.020;12.066;2023-03-14T12:43:42;14.30;99.90
8965;DHT22;4517;49.020;12.066;2023-03-14T12:51:42;14.30;99.90
8965;DHT22;4517;49.020;12.066;2023-03-14T12:54:27;14.60;99.90
8965;DHT22;4517;49.020;12.066;2023-03-14T13:04:43;15.20;99.90
8965;DHT22;4517;49.020;12.066;2023-03-14T13:10:23;14.70;99.90
8965;DHT22;4517;49.020;12.066;2023-03-14T13:15:27;14.00;99.90
8965;DHT22;4517;49.020;12.066;2023-03-14T13:17:59;13.90;99.90
8965;DHT22;4517;49.020;12.066;2023-03-14T13:20:34;13.90;99.90
8965;DHT22;4517;49.020;12.066;2023-03-14T13:23:01;13.80;99.90
8965;DHT22;4517;49.020;12.066;2023-03-14T13:25:32;13.70;99.90
8965;DHT22;4517;49.020;12.066;2023-03-14T13:27:58;13.30;99.90
8965;DHT22;4517;49.020;12.066;2023-03-14T13:30:35;13.30;99.90
8965;DHT22;4517;49.020;12.066;2023-03-14T13:33:04;13.10;99.90
8965;DHT22;4517;49.020;12.066;2023-03-14T13:35:42;13.00;99.90
8965;DHT22;4517;49.020;12.066;2023-03-14T13:38:23;13.20;99.90
8965;DHT22;4517;49.020;12.066;2023-03-14T13:40:50;13.50;99.90
8965;DHT22;4517;49.020;12.066;2023-03-14T13:43:25;13.70;99.90
8965;DHT22;4517;49.020;12.066;2023-03-14T13:46:06;13.80;99.90
8965;DHT22;4517;49.020;12.066;2023-03-14T13:48:34;13.80;99.90
8965;DHT22;4517;49.020;12.066;2023-03-14T13:51:05;13.80;99.90
8965;DHT22;4517;49.020;12.066;2023-03-14T13:53:32;13.80;99.90
8965;DHT22;4517;49.020;12.066;2023-03-14T13:56:09;13.80;99.90
8965;DHT22;4517;49.020;12.066;2023-03-14T13:58:37;13.70;99.90
8965;DHT22;4517;49.020;12.066;2023-03-14T14:01:15;13.50;99.90
8965;DHT22;4517;49.020;12.066;2023-03-14T14:03:44;13.20;99.90
8965;DHT22;4517;49.020;12.066;2023-03-14T14:06:36;12.70;99.90
8965;DHT22;4517;49.020;12.066;2023-03-14T14:09:14;12.10;99.90
8965;DHT22;4517;49.020;12.066;2023-03-14T14:11:54;11.60;99.90
8965;DHT22;4517;49.020;12.066;2023-03-14T14:14:28;11.10;99.90
8965;DHT22;4517;49.020;12.066;2023-03-14T14:16:56;10.70;99.90
8965;DHT22;4517;49.020;12.066;2023-03-14T14:19:25;10.50;99.90
8965;DHT22;4517;49.020;12.066;2023-03-14T14:21:52;10.40;99.90
8965;DHT22;4517;49.020;12.066;2023-03-14T14:24:20;10.30;99.90
8965;DHT22;4517;49.020;12.066;2023-03-14T14:26:51;10.00;99.90
8965;DHT22;4517;49.020;12.066;2023-03-14T14:29:32;9.50;99.90
8965;DHT22;4517;49.020;12.066;2023-03-14T14:32:12;9.40;99.90
8965;DHT22;4517;49.020;12.066;2023-03-14T14:35:06;9.30;99.90
8965;DHT22;4517;49.020;12.066;2023-03-14T14:37:42;9.40;99.90
8965;DHT22;4517;49.020;12.066;2023-03-14T14:40:13;9.50;99.90
8965;DHT22;4517;49.020;12.066;2023-03-14T14:42:41;9.70;99.90
8965;DHT22;4517;49.020;12.066;2023-03-14T14:45:14;9.80;99.90
8965;DHT22;4517;49.020;12.066;2023-03-14T14:47:50;10.00;99.90
8965;DHT22;4517;49.020;12.066;2023-03-14T14:53:22;10.00;99.90
8965;DHT22;4517;49.020;12.066;2023-03-14T14:55:54;9.70;99.90
8965;DHT22;4517;49.020;12.066;2023-03-14T14:58:32;9.70;99.90
8965;DHT22;4517;49.020;12.066;2023-03-14T15:01:10;9.70;99.90
8965;DHT22;4517;49.020;12.066;2023-03-14T15:03:36;9.60;99.90
8965;DHT22;4517;49.020;12.066;2023-03-14T15:06:03;9.60;99.90
8965;DHT22;4517;49.020;12.066;2023-03-14T15:08:29;9.60;99.90
8965;DHT22;4517;49.020;12.066;2023-03-14T15:10:56;9.60;99.90
8965;DHT22;4517;49.020;12.066;2023-03-14T15:13:22;9.70;99.90
8965;DHT22;4517;49.020;12.066;2023-03-14T15:15:49;9.70;99.90
8965;DHT22;4517;49.020;12.066;2023-03-14T15:18:17;9.80;99.90
8965;DHT22;4517;49.020;12.066;2023-03-14T15:20:43;9.80;99.90
8965;DHT22;4517;49.020;12.066;2023-03-14T15:23:11;9.70;99.90
8965;DHT22;4517;49.020;12.066;2023-03-14T15:25:37;9.80;99.90
8965;DHT22;4517;49.020;12.066;2023-03-14T15:28:19;9.70;99.90
8965;DHT22;4517;49.020;12.066;2023-03-14T15:30:49;9.50;99.90
8965;DHT22;4517;49.020;12.066;2023-03-14T15:33:15;9.30;99.90
8965;DHT22;4517;49.020;12.066;2023-03-14T15:35:41;9.20;99.90
8965;DHT22;4517;49.020;12.066;2023-03-14T15:38:15;8.90;99.90
8965;DHT22;4517;49.020;12.066;2023-03-14T15:40:42;8.80;99.90
8965;DHT22;4517;49.020;12.066;2023-03-14T15:43:08;8.50;99.90
8965;DHT22;4517;49.020;12.066;2023-03-14T15:45:34;8.40;99.90
8965;DHT22;4517;49.020;12.066;2023-03-14T15:48:00;8.40;99.90
8965;DHT22;4517;49.020;12.066;2023-03-14T15:50:25;8.40;99.90
8965;DHT22;4517;49.020;12.066;2023-03-14T15:52:51;8.40;99.90
8965;DHT22;4517;49.020;12.066;2023-03-14T15:55:17;8.50;99.90
8965;DHT22;4517;49.020;12.066;2023-03-14T15:57:43;8.50;99.90
8965;DHT22;4517;49.020;12.066;2023-03-14T16:00:15;8.50;99.90
8965;DHT22;4517;49.020;12.066;2023-03-14T16:02:43;8.40;99.90
8965;DHT22;4517;49.020;12.066;2023-03-14T16:05:09;8.50;99.90
8965;DHT22;4517;49.020;12.066;2023-03-14T16:07:35;8.50;99.90
8965;DHT22;4517;49.020;12.066;2023-03-14T16:10:02;8.50;99.90
8965;DHT22;4517;49.020;12.066;2023-03-14T16:12:28;8.50;99.90
8965;DHT22;4517;49.020;12.066;2023-03-14T16:14:54;8.40;99.90
8965;DHT22;4517;49.020;12.066;2023-03-14T16:17:19;8.30;99.90
8965;DHT22;4517;49.020;12.066;2023-03-14T16:19:45;8.20;99.90
8965;DHT22;4517;49.020;12.066;2023-03-14T16:22:12;8.20;99.90
8965;DHT22;4517;49.020;12.066;2023-03-14T16:24:37;8.10;99.90
8965;DHT22;4517;49.020;12.066;2023-03-14T16:27:03;8.10;99.90
8965;DHT22;4517;49.020;12.066;2023-03-14T16:29:29;8.00;99.90
8965;DHT22;4517;49.020;12.066;2023-03-14T16:31:55;8.00;99.90
8965;DHT22;4517;49.020;12.066;2023-03-14T16:34:21;8.00;99.90
8965;DHT22;4517;49.020;12.066;2023-03-14T16:36:46;7.90;99.90
8965;DHT22;4517;49.020;12.066;2023-03-14T16:39:12;7.80;99.90
8965;DHT22;4517;49.020;12.066;2023-03-14T16:41:38;7.80;99.90
8965;DHT22;4517;49.020;12.066;2023-03-14T16:44:04;7.70;99.90
8965;DHT22;4517;49.020;12.066;2023-03-14T16:46:29;7.70;99.90
8965;DHT22;4517;49.020;12.066;2023-03-14T16:48:55;7.70;99.90
8965;DHT22;4517;49.020;12.066;2023-03-14T16:51:22;7.80;99.90
8965;DHT22;4517;49.020;12.066;2023-03-14T16:53:48;7.80;99.90
8965;DHT22;4517;49.020;12.066;2023-03-14T16:56:14;7.80;99.90
8965;DHT22;4517;49.020;12.066;2023-03-14T16:58:40;7.80;99.90
8965;DHT22;4517;49.020;12.066;2023-03-14T17:01:07;7.70;99.90
8965;DHT22;4517;49.020;12.066;2023-03-14T17:03:41;7.70;99.90
8965;DHT22;4517;49.020;12.066;2023-03-14T17:06:09;7.60;99.90
8965;DHT22;4517;49.020;12.066;2023-03-14T17:08:35;7.60;99.90
8965;DHT22;4517;49.020;12.066;2023-03-14T17:11:01;7.60;99.90
8965;DHT22;4517;49.020;12.066;2023-03-14T17:13:26;7.60;99.90